sensor_id;sensor_type;location;lat;lon;timestamp;pressure;altitude;pressure_sealevel;temperature
6550;BMP280;15142;48.888;9.134;2023-04-01T00:01:46;96708.66;;;8.89
6550;BMP280;15142;48.888;9.134;2023-04-01T00:04:15;96708.53;;;8.94
6550;BMP280;15142;48.888;9.134;2023-04-01T00:06:46;96706.28;;;8.92
6550;BMP280;15142;48.888;9.134;2023-04-01T00:09:15;96717.09;;;8.97
6550;BMP280;15142;48.888;9.134;2023-04-01T00:11:44;96709.44;;;8.97
6550;BMP280;15142;48.888;9.134;2023-04-01T00:14:13;96707.38;;;8.99
6550;BMP280;15142;48.888;9.134;2023-04-01T00:16:41;96703.03;;;9.00
6550;BMP280;15142;48.888;9.134;2023-04-01T00:19:10;96714.00;;;9.09
6550;BMP280;15142;48.888;9.134;2023-04-01T00:21:38;96721.22;;;9.15
6550;BMP280;15142;48.888;9.134;2023-04-01T00:24:09;96714.94;;;9.21
6550;BMP280;15142;48.888;9.134;2023-04-01T00:26:38;96708.63;;;9.10
6550;BMP280;15142;48.888;9.134;2023-04-01T00:29:08;96713.38;;;9.03
6550;BMP280;15142;48.888;9.134;2023-04-01T00:31:36;96713.22;;;9.00
6550;BMP280;15142;48.888;9.134;2023-04-01T00:34:05;96710.69;;;9.08
6550;BMP280;15142;48.888;9.134;2023-04-01T00:36:34;96711.75;;;9.07
6550;BMP280;15142;48.888;9.134;2023-04-01T00:39:02;96716.38;;;9.05
6550;BMP280;15142;48.888;9.134;2023-04-01T00:41:33;96717.78;;;9.11
6550;BMP280;15142;48.888;9.134;2023-04-01T00:44:15;96716.25;;;9.10
6550;BMP280;15142;48.888;9.134;2023-04-01T00:46:44;96715.66;;;9.13
6550;BMP280;15142;48.888;9.134;2023-04-01T00:49:15;96726.88;;;9.12
6550;BMP280;15142;48.888;9.134;2023-04-01T00:51:47;96726.13;;;9.12
6550;BMP280;15142;48.888;9.134;2023-04-01T00:54:18;96720.88;;;9.08
6550;BMP280;15142;48.888;9.134;2023-04-01T00:56:53;96722.53;;;9.13
6550;BMP280;15142;48.888;9.134;2023-04-01T00:59:26;96713.13;;;9.13
6550;BMP280;15142;48.888;9.134;2023-04-01T01:01:56;96714.94;;;9.21
6550;BMP280;15142;48.888;9.134;2023-04-01T01:04:26;96717.19;;;9.23
6550;BMP280;15142;48.888;9.134;2023-04-01T01:07:03;96723.34;;;9.30
6550;BMP280;15142;48.888;9.134;2023-04-01T01:09:43;96720.38;;;9.28
6550;BMP280;15142;48.888;9.134;2023-04-01T01:12:18;96711.69;;;9.29
6550;BMP280;15142;48.888;9.134;2023-04-01T01:15:02;96722.03;;;9.32
6550;BMP280;15142;48.888;9.134;2023-04-01T01:17:40;96711.84;;;9.32
6550;BMP280;15142;48.888;9.134;2023-04-01T01:20:31;96713.91;;;9.30
6550;BMP280;15142;48.888;9.134;2023-04-01T01:23:15;96713.88;;;9.22
6550;BMP280;15142;48.888;9.134;2023-04-01T01:26:05;96716.31;;;9.27
6550;BMP280;15142;48.888;9.134;2023-04-01T01:28:47;96713.75;;;9.27
6550;BMP280;15142;48.888;9.134;2023-04-01T01:31:25;96707.19;;;9.26
6550;BMP280;15142;48.888;9.134;2023-04-01T01:34:02;96721.53;;;9.22
6550;BMP280;15142;48.888;9.134;2023-04-01T01:36:37;96706.44;;;9.26
6550;BMP280;15142;48.888;9.134;2023-04-01T01:39:09;96716.78;;;9.29
6550;BMP280;15142;48.888;9.134;2023-04-01T01:41:41;96716.31;;;9.27
6550;BMP280;15142;48.888;9.134;2023-04-01T01:44:12;96714.53;;;9.27
6550;BMP280;15142;48.888;9.134;2023-04-01T01:46:44;96703.44;;;9.24
6550;BMP280;15142;48.888;9.134;2023-04-01T01:49:14;96715.28;;;9.28
6550;BMP280;15142;48.888;9.134;2023-04-01T01:51:49;96710.03;;;9.33
6550;BMP280;15142;48.888;9.134;2023-04-01T01:54:18;96711.56;;;9.34
6550;BMP280;15142;48.888;9.134;2023-04-01T01:56:49;96713.03;;;9.35
6550;BMP280;15142;48.888;9.134;2023-04-01T01:59:21;96725.72;;;9.18
6550;BMP280;15142;48.888;9.134;2023-04-01T02:01:52;96727.03;;;9.07
6550;BMP280;15142;48.888;9.134;2023-04-01T02:04:23;96720.22;;;9.03
6550;BMP280;15142;48.888;9.134;2023-04-01T02:06:58;96715.91;;;9.03
6550;BMP280;15142;48.888;9.134;2023-04-01T02:09:28;96712.47;;;8.99
6550;BMP280;15142;48.888;9.134;2023-04-01T02:12:03;96715.78;;;9.08
6550;BMP280;15142;48.888;9.134;2023-04-01T02:14:41;96725.03;;;9.04
6550;BMP280;15142;48.888;9.134;2023-04-01T02:17:14;96716.38;;;9.05
6550;BMP280;15142;48.888;9.134;2023-04-01T02:19:47;96719.66;;;9.06
6550;BMP280;15142;48.888;9.134;2023-04-01T02:22:23;96716.84;;;9.07
6550;BMP280;15142;48.888;9.134;2023-04-01T02:24:55;96717.00;;;9.11
6550;BMP280;15142;48.888;9.134;2023-04-01T02:27:25;96709.53;;;9.14
6550;BMP280;15142;48.888;9.134;2023-04-01T02:29:54;96708.50;;;9.15
6550;BMP280;15142;48.888;9.134;2023-04-01T02:32:25;96715.06;;;9.16
6550;BMP280;15142;48.888;9.134;2023-04-01T02:34:55;96709.06;;;9.12
6550;BMP280;15142;48.888;9.134;2023-04-01T02:37:28;96717.06;;;9.19
6550;BMP280;15142;48.888;9.134;2023-04-01T02:39:59;96706.41;;;9.17
6550;BMP280;15142;48.888;9.134;2023-04-01T02:42:29;96724.22;;;9.17
6550;BMP280;15142;48.888;9.134;2023-04-01T02:44:57;96723.75;;;9.15
6550;BMP280;15142;48.888;9.134;2023-04-01T02:47:26;96721.50;;;9.14
6550;BMP280;15142;48.888;9.134;2023-04-01T02:49:55;96724.94;;;9.09
6550;BMP280;15142;48.888;9.134;2023-04-01T02:52:24;96725.66;;;9.01
6550;BMP280;15142;48.888;9.134;2023-04-01T02:54:57;96729.69;;;9.02
6550;BMP280;15142;48.888;9.134;2023-04-01T02:57:26;96731.47;;;9.02
6550;BMP280;15142;48.888;9.134;2023-04-01T02:59:55;96731.88;;;8.95
6550;BMP280;15142;48.888;9.134;2023-04-01T03:02:23;96723.78;;;8.94
6550;BMP280;15142;48.888;9.134;2023-04-01T03:04:52;96722.41;;;8.88
6550;BMP280;15142;48.888;9.134;2023-04-01T03:07:21;96723.44;;;8.87
6550;BMP280;15142;48.888;9.134;2023-04-01T03:09:50;96714.19;;;8.91
6550;BMP280;15142;48.888;9.134;2023-04-01T03:12:21;96723.03;;;8.93
6550;BMP280;15142;48.888;9.134;2023-04-01T03:14:51;96725.00;;;8.96
6550;BMP280;15142;48.888;9.134;2023-04-01T03:17:20;96720.03;;;8.91
6550;BMP280;15142;48.888;9.134;2023-04-01T03:19:49;96717.63;;;8.94
6550;BMP280;15142;48.888;9.134;2023-04-01T03:22:17;96716.47;;;8.92
6550;BMP280;15142;48.888;9.134;2023-04-01T03:24:46;96720.84;;;9.00
6550;BMP280;15142;48.888;9.134;2023-04-01T03:27:15;96707.03;;;8.93
6550;BMP280;15142;48.888;9.134;2023-04-01T03:29:46;96718.69;;;8.94
6550;BMP280;15142;48.888;9.134;2023-04-01T03:32:15;96721.72;;;8.95
6550;BMP280;15142;48.888;9.134;2023-04-01T03:34:44;96719.00;;;8.92
6550;BMP280;15142;48.888;9.134;2023-04-01T03:37:13;96715.25;;;8.90
6550;BMP280;15142;48.888;9.134;2023-04-01T03:39:41;96709.81;;;8.83
6550;BMP280;15142;48.888;9.134;2023-04-01T03:42:11;96715.47;;;8.80
6550;BMP280;15142;48.888;9.134;2023-04-01T03:44:41;96708.59;;;8.80
6550;BMP280;15142;48.888;9.134;2023-04-01T03:47:13;96705.59;;;8.78
6550;BMP280;15142;48.888;9.134;2023-04-01T03:49:43;96710.53;;;8.75
6550;BMP280;15142;48.888;9.134;2023-04-01T03:52:12;96712.59;;;8.73
6550;BMP280;15142;48.888;9.134;2023-04-01T03:54:41;96713.94;;;8.70
6550;BMP280;15142;48.888;9.134;2023-04-01T03:57:10;96711.84;;;8.72
6550;BMP280;15142;48.888;9.134;2023-04-01T03:59:38;96708.09;;;8.70
6550;BMP280;15142;48.888;9.134;2023-04-01T04:02:07;96699.53;;;8.66
6550;BMP280;15142;48.888;9.134;2023-04-01T04:04:39;96696.97;;;8.66
6550;BMP280;15142;48.888;9.134;2023-04-01T04:07:09;96700.00;;;8.68
6550;BMP280;15142;48.888;9.134;2023-04-01T04:10:05;96689.06;;;8.67
6550;BMP280;15142;48.888;9.134;2023-04-01T04:12:34;96691.19;;;8.65
6550;BMP280;15142;48.888;9.134;2023-04-01T04:15:04;96693.59;;;8.70
6550;BMP280;15142;48.888;9.134;2023-04-01T04:17:34;96689.72;;;8.73
6550;BMP280;15142;48.888;9.134;2023-04-01T04:20:06;96687.00;;;8.69
6550;BMP280;15142;48.888;9.134;2023-04-01T04:22:36;96689.72;;;8.73
6550;BMP280;15142;48.888;9.134;2023-04-01T04:25:07;96685.09;;;8.75
6550;BMP280;15142;48.888;9.134;2023-04-01T04:27:37;96677.91;;;8.77
6550;BMP280;15142;48.888;9.134;2023-04-01T04:30:08;96684.94;;;8.71
6550;BMP280;15142;48.888;9.134;2023-04-01T04:32:37;96689.81;;;8.68
6550;BMP280;15142;48.888;9.134;2023-04-01T04:35:10;96685.66;;;8.72
6550;BMP280;15142;48.888;9.134;2023-04-01T04:37:40;96692.72;;;8.75
6550;BMP280;15142;48.888;9.134;2023-04-01T04:40:09;96692.25;;;8.73
6550;BMP280;15142;48.888;9.134;2023-04-01T04:42:38;96690.84;;;8.67
6550;BMP280;15142;48.888;9.134;2023-04-01T04:45:11;96686.09;;;8.65
6550;BMP280;15142;48.888;9.134;2023-04-01T04:47:49;96679.78;;;8.63
6550;BMP280;15142;48.888;9.134;2023-04-01T04:50:20;96675.28;;;8.60
6550;BMP280;15142;48.888;9.134;2023-04-01T04:52:49;96680.25;;;8.65
6550;BMP280;15142;48.888;9.134;2023-04-01T04:55:18;96683.84;;;8.64
6550;BMP280;15142;48.888;9.134;2023-04-01T04:57:55;96675.38;;;8.55
6550;BMP280;15142;48.888;9.134;2023-04-01T05:00:24;96686.81;;;8.66
6550;BMP280;15142;48.888;9.134;2023-04-01T05:02:58;96676.00;;;8.61
6550;BMP280;15142;48.888;9.134;2023-04-01T05:05:29;96679.63;;;8.60
6550;BMP280;15142;48.888;9.134;2023-04-01T05:07:59;96680.81;;;8.62
6550;BMP280;15142;48.888;9.134;2023-04-01T05:10:27;96677.22;;;8.63
6550;BMP280;15142;48.888;9.134;2023-04-01T05:12:57;96673.66;;;8.64
6550;BMP280;15142;48.888;9.134;2023-04-01T05:15:26;96673.81;;;8.67
6550;BMP280;15142;48.888;9.134;2023-04-01T05:17:55;96681.91;;;8.69
6550;BMP280;15142;48.888;9.134;2023-04-01T05:20:24;96672.59;;;8.65
6550;BMP280;15142;48.888;9.134;2023-04-01T05:22:58;96672.91;;;8.64
6550;BMP280;15142;48.888;9.134;2023-04-01T05:25:27;96674.22;;;8.61
6550;BMP280;15142;48.888;9.134;2023-04-01T05:27:56;96678.75;;;8.64
6550;BMP280;15142;48.888;9.134;2023-04-01T05:30:25;96682.78;;;8.65
6550;BMP280;15142;48.888;9.134;2023-04-01T05:33:00;96670.06;;;8.65
6550;BMP280;15142;48.888;9.134;2023-04-01T05:35:29;96671.97;;;8.60
6550;BMP280;15142;48.888;9.134;2023-04-01T05:38:01;96674.44;;;8.51
6550;BMP280;15142;48.888;9.134;2023-04-01T05:40:30;96671.44;;;8.49
6550;BMP280;15142;48.888;9.134;2023-04-01T05:42:59;96660.38;;;8.45
6550;BMP280;15142;48.888;9.134;2023-04-01T05:45:28;96662.22;;;8.53
6550;BMP280;15142;48.888;9.134;2023-04-01T05:48:29;96649.38;;;8.58
6550;BMP280;15142;48.888;9.134;2023-04-01T05:50:58;96656.31;;;8.66
6550;BMP280;15142;48.888;9.134;2023-04-01T05:53:30;96651.41;;;8.69
6550;BMP280;15142;48.888;9.134;2023-04-01T05:56:02;96656.06;;;8.76
6550;BMP280;15142;48.888;9.134;2023-04-01T05:58:36;96657.00;;;8.80
6550;BMP280;15142;48.888;9.134;2023-04-01T06:01:10;96656.84;;;8.85
6550;BMP280;15142;48.888;9.134;2023-04-01T06:03:39;96646.56;;;8.90
6550;BMP280;15142;48.888;9.134;2023-04-01T06:06:13;96650.94;;;8.97
6550;BMP280;15142;48.888;9.134;2023-04-01T06:08:45;96654.16;;;9.11
6550;BMP280;15142;48.888;9.134;2023-04-01T06:11:24;96656.53;;;9.16
6550;BMP280;15142;48.888;9.134;2023-04-01T06:14:07;96663.00;;;9.30
6550;BMP280;15142;48.888;9.134;2023-04-01T06:16:54;96656.03;;;9.36
6550;BMP280;15142;48.888;9.134;2023-04-01T06:19:31;96661.13;;;9.44
6550;BMP280;15142;48.888;9.134;2023-04-01T06:22:25;96663.69;;;9.53
6550;BMP280;15142;48.888;9.134;2023-04-01T06:25:10;96659.94;;;9.58
6550;BMP280;15142;48.888;9.134;2023-04-01T06:27:53;96661.91;;;9.61
6550;BMP280;15142;48.888;9.134;2023-04-01T06:30:35;96666.72;;;9.63
6550;BMP280;15142;48.888;9.134;2023-04-01T06:33:32;96669.84;;;9.68
6550;BMP280;15142;48.888;9.134;2023-04-01T06:36:17;96660.56;;;9.72
6550;BMP280;15142;48.888;9.134;2023-04-01T06:42:17;96668.19;;;9.72
6550;BMP280;15142;48.888;9.134;2023-04-01T06:44:59;96675.41;;;9.70
6550;BMP280;15142;48.888;9.134;2023-04-01T06:48:02;96670.75;;;9.72
6550;BMP280;15142;48.888;9.134;2023-04-01T06:50:58;96660.13;;;9.70
6550;BMP280;15142;48.888;9.134;2023-04-01T06:53:56;96668.66;;;9.74
6550;BMP280;15142;48.888;9.134;2023-04-01T06:56:59;96669.09;;;9.68
6550;BMP280;15142;48.888;9.134;2023-04-01T06:59:36;96669.84;;;9.77
6550;BMP280;15142;48.888;9.134;2023-04-01T07:02:15;96673.28;;;9.72
6550;BMP280;15142;48.888;9.134;2023-04-01T07:04:46;96671.94;;;9.75
6550;BMP280;15142;48.888;9.134;2023-04-01T07:07:24;96672.41;;;9.68
6550;BMP280;15142;48.888;9.134;2023-04-01T07:10:05;96674.19;;;9.68
6550;BMP280;15142;48.888;9.134;2023-04-01T07:12:55;96674.94;;;9.68
6550;BMP280;15142;48.888;9.134;2023-04-01T07:15:55;96665.03;;;9.67
6550;BMP280;15142;48.888;9.134;2023-04-01T07:18:34;96667.59;;;9.67
6550;BMP280;15142;48.888;9.134;2023-04-01T07:21:05;96686.31;;;9.62
6550;BMP280;15142;48.888;9.134;2023-04-01T07:23:42;96675.41;;;9.70
6550;BMP280;15142;48.888;9.134;2023-04-01T07:26:33;96682.72;;;9.63
6550;BMP280;15142;48.888;9.134;2023-04-01T07:29:13;96677.63;;;9.63
6550;BMP280;15142;48.888;9.134;2023-04-01T07:32:05;96676.47;;;9.69
6550;BMP280;15142;48.888;9.134;2023-04-01T07:34:41;96679.00;;;9.61
6550;BMP280;15142;48.888;9.134;2023-04-01T07:37:17;96689.19;;;9.69
6550;BMP280;15142;48.888;9.134;2023-04-01T07:39:52;96679.31;;;9.76
6550;BMP280;15142;48.888;9.134;2023-04-01T07:42:41;96688.16;;;9.70
6550;BMP280;15142;48.888;9.134;2023-04-01T07:45:19;96691.13;;;9.72
6550;BMP280;15142;48.888;9.134;2023-04-01T07:48:09;96695.94;;;9.82
6550;BMP280;15142;48.888;9.134;2023-04-01T07:50:44;96696.13;;;9.86
6550;BMP280;15142;48.888;9.134;2023-04-01T07:53:19;96694.91;;;9.91
6550;BMP280;15142;48.888;9.134;2023-04-01T07:55:58;96693.69;;;9.81
6550;BMP280;15142;48.888;9.134;2023-04-01T07:58:37;96698.94;;;9.84
6550;BMP280;15142;48.888;9.134;2023-04-01T08:01:18;96695.06;;;9.78
6550;BMP280;15142;48.888;9.134;2023-04-01T08:04:08;96683.66;;;9.84
6550;BMP280;15142;48.888;9.134;2023-04-01T08:06:46;96695.38;;;9.85
6550;BMP280;15142;48.888;9.134;2023-04-01T08:09:25;96699.13;;;9.96
6550;BMP280;15142;48.888;9.134;2023-04-01T08:12:33;96701.34;;;10.06
6550;BMP280;15142;48.888;9.134;2023-04-01T08:15:42;96708.56;;;10.12
6550;BMP280;15142;48.888;9.134;2023-04-01T08:18:32;96702.13;;;10.23
6550;BMP280;15142;48.888;9.134;2023-04-01T08:21:10;96689.06;;;10.24
6550;BMP280;15142;48.888;9.134;2023-04-01T08:23:44;96702.88;;;10.15
6550;BMP280;15142;48.888;9.134;2023-04-01T08:26:21;96697.63;;;10.03
6550;BMP280;15142;48.888;9.134;2023-04-01T08:28:59;96703.47;;;10.04
6550;BMP280;15142;48.888;9.134;2023-04-01T08:31:32;96704.97;;;10.05
6550;BMP280;15142;48.888;9.134;2023-04-01T08:34:05;96708.41;;;10.00
6550;BMP280;15142;48.888;9.134;2023-04-01T08:36:41;96718.75;;;9.87
6550;BMP280;15142;48.888;9.134;2023-04-01T08:39:17;96720.00;;;9.51
6550;BMP280;15142;48.888;9.134;2023-04-01T08:42:12;96707.50;;;9.33
6550;BMP280;15142;48.888;9.134;2023-04-01T08:51:10;96700.56;;;9.25
6550;BMP280;15142;48.888;9.134;2023-04-01T08:54:13;96709.44;;;9.19
6550;BMP280;15142;48.888;9.134;2023-04-01T08:56:51;96698.03;;;9.25
6550;BMP280;15142;48.888;9.134;2023-04-01T08:59:31;96701.91;;;9.23
6550;BMP280;15142;48.888;9.134;2023-04-01T09:02:24;96693.00;;;9.33
6550;BMP280;15142;48.888;9.134;2023-04-01T09:05:17;96698.66;;;9.39
6550;BMP280;15142;48.888;9.134;2023-04-01T09:07:57;96705.16;;;9.45
6550;BMP280;15142;48.888;9.134;2023-04-01T09:10:47;96700.69;;;9.58
6550;BMP280;15142;48.888;9.134;2023-04-01T09:17:27;96716.78;;;9.84
6550;BMP280;15142;48.888;9.134;2023-04-01T09:20:15;96709.44;;;9.91
6550;BMP280;15142;48.888;9.134;2023-04-01T09:23:00;96719.94;;;10.15
6550;BMP280;15142;48.888;9.134;2023-04-01T09:25:56;96717.59;;;10.35
6550;BMP280;15142;48.888;9.134;2023-04-01T09:28:28;96715.44;;;10.45
6550;BMP280;15142;48.888;9.134;2023-04-01T09:31:30;96720.09;;;10.26
6550;BMP280;15142;48.888;9.134;2023-04-01T09:34:35;96720.41;;;10.17
6550;BMP280;15142;48.888;9.134;2023-04-01T09:37:20;96722.38;;;10.11
6550;BMP280;15142;48.888;9.134;2023-04-01T09:40:16;96728.50;;;10.18
6550;BMP280;15142;48.888;9.134;2023-04-01T09:43:06;96724.00;;;10.16
6550;BMP280;15142;48.888;9.134;2023-04-01T09:45:51;96721.91;;;10.26
6550;BMP280;15142;48.888;9.134;2023-04-01T09:48:59;96724.78;;;10.33
6550;BMP280;15142;48.888;9.134;2023-04-01T09:51:38;96726.88;;;10.39
6550;BMP280;15142;48.888;9.134;2023-04-01T09:54:32;96726.88;;;10.39
6550;BMP280;15142;48.888;9.134;2023-04-01T09:57:40;96720.88;;;10.35
6550;BMP280;15142;48.888;9.134;2023-04-01T10:00:58;96736.59;;;10.37
6550;BMP280;15142;48.888;9.134;2023-04-01T10:03:47;96740.34;;;10.31
6550;BMP280;15142;48.888;9.134;2023-04-01T10:10:03;96741.41;;;10.39
6550;BMP280;15142;48.888;9.134;2023-04-01T10:12:53;96739.78;;;10.51
6550;BMP280;15142;48.888;9.134;2023-04-01T10:15:38;96739.31;;;10.49
6550;BMP280;15142;48.888;9.134;2023-04-01T10:27:21;96749.34;;;10.46
6550;BMP280;15142;48.888;9.134;2023-04-01T10:36:43;96738.09;;;10.38
6550;BMP280;15142;48.888;9.134;2023-04-01T10:39:33;96742.00;;;10.44
6550;BMP280;15142;48.888;9.134;2023-04-01T10:42:37;96746.19;;;10.40
6550;BMP280;15142;48.888;9.134;2023-04-01T10:45:57;96737.22;;;10.26
6550;BMP280;15142;48.888;9.134;2023-04-01T10:48:52;96738.84;;;10.30
6550;BMP280;15142;48.888;9.134;2023-04-01T10:51:55;96743.66;;;10.32
6550;BMP280;15142;48.888;9.134;2023-04-01T10:55:14;96740.06;;;10.41
6550;BMP280;15142;48.888;9.134;2023-04-01T11:05:40;96743.34;;;10.67
6550;BMP280;15142;48.888;9.134;2023-04-01T11:09:00;96737.03;;;10.81
6550;BMP280;15142;48.888;9.134;2023-04-01T11:15:01;96751.84;;;10.96
6550;BMP280;15142;48.888;9.134;2023-04-01T11:18:02;96759.19;;;10.97
6550;BMP280;15142;48.888;9.134;2023-04-01T11:23:54;96760.34;;;11.08
6550;BMP280;15142;48.888;9.134;2023-04-01T11:26:44;96747.56;;;11.08
6550;BMP280;15142;48.888;9.134;2023-04-01T11:29:57;96760.16;;;11.21
6550;BMP280;15142;48.888;9.134;2023-04-01T11:32:42;96766.06;;;11.42
6550;BMP280;15142;48.888;9.134;2023-04-01T11:35:23;96754.75;;;11.23
6550;BMP280;15142;48.888;9.134;2023-04-01T11:38:00;96752.06;;;11.19
6550;BMP280;15142;48.888;9.134;2023-04-01T11:40:52;96762.44;;;11.14
6550;BMP280;15142;48.888;9.134;2023-04-01T11:43:47;96774.56;;;11.26
6550;BMP280;15142;48.888;9.134;2023-04-01T11:47:00;96754.16;;;11.26
6550;BMP280;15142;48.888;9.134;2023-04-01T11:49:40;96765.69;;;11.32
6550;BMP280;15142;48.888;9.134;2023-04-01T11:52:42;96747.97;;;11.27
6550;BMP280;15142;48.888;9.134;2023-04-01T11:55:28;96766.91;;;11.26
6550;BMP280;15142;48.888;9.134;2023-04-01T11:58:22;96769.56;;;11.38
6550;BMP280;15142;48.888;9.134;2023-04-01T12:01:20;96769.13;;;11.36
6550;BMP280;15142;48.888;9.134;2023-04-01T12:07:02;96765.69;;;11.32
6550;BMP280;15142;48.888;9.134;2023-04-01T12:09:40;96771.81;;;11.39
6550;BMP280;15142;48.888;9.134;2023-04-01T12:12:18;96782.00;;;11.47
6550;BMP280;15142;48.888;9.134;2023-04-01T12:15:02;96792.66;;;11.49
6550;BMP280;15142;48.888;9.134;2023-04-01T12:17:41;96783.78;;;11.55
6550;BMP280;15142;48.888;9.134;2023-04-01T12:20:28;96790.09;;;11.49
6550;BMP280;15142;48.888;9.134;2023-04-01T12:23:07;96776.72;;;11.52
6550;BMP280;15142;48.888;9.134;2023-04-01T12:25:56;96790.53;;;11.51
6550;BMP280;15142;48.888;9.134;2023-04-01T12:28:41;96771.84;;;11.31
6550;BMP280;15142;48.888;9.134;2023-04-01T12:31:27;96782.00;;;11.47
6550;BMP280;15142;48.888;9.134;2023-04-01T12:34:21;96789.72;;;11.68
6550;BMP280;15142;48.888;9.134;2023-04-01T12:37:04;96785.97;;;11.65
6550;BMP280;15142;48.888;9.134;2023-04-01T12:40:01;96788.28;;;11.87
6550;BMP280;15142;48.888;9.134;2023-04-01T12:42:52;96809.31;;;11.55
6550;BMP280;15142;48.888;9.134;2023-04-01T12:45:38;96798.94;;;11.52
6550;BMP280;15142;48.888;9.134;2023-04-01T12:48:39;96793.09;;;11.51
6550;BMP280;15142;48.888;9.134;2023-04-01T12:51:26;96793.91;;;11.35
6550;BMP280;15142;48.888;9.134;2023-04-01T12:57:04;96797.69;;;11.29
6550;BMP280;15142;48.888;9.134;2023-04-01T12:59:50;96784.19;;;11.29
6550;BMP280;15142;48.888;9.134;2023-04-01T13:02:31;96791.22;;;11.32
6550;BMP280;15142;48.888;9.134;2023-04-01T13:05:19;96797.94;;;11.36
6550;BMP280;15142;48.888;9.134;2023-04-01T13:08:02;96798.72;;;11.37
6550;BMP280;15142;48.888;9.134;2023-04-01T13:10:44;96791.09;;;11.28
6550;BMP280;15142;48.888;9.134;2023-04-01T13:13:30;96799.09;;;11.10
6550;BMP280;15142;48.888;9.134;2023-04-01T13:16:07;96798.41;;;10.84
6550;BMP280;15142;48.888;9.134;2023-04-01T13:18:45;96787.75;;;10.74
6550;BMP280;15142;48.888;9.134;2023-04-01T13:21:25;96803.94;;;10.70
6550;BMP280;15142;48.888;9.134;2023-04-01T13:24:04;96803.94;;;10.78
6550;BMP280;15142;48.888;9.134;2023-04-01T13:26:39;96813.84;;;10.88
6550;BMP280;15142;48.888;9.134;2023-04-01T13:29:14;96817.91;;;10.89
6550;BMP280;15142;48.888;9.134;2023-04-01T13:31:55;96820.59;;;11.01
6550;BMP280;15142;48.888;9.134;2023-04-01T13:34:39;96818.59;;;11.06
6550;BMP280;15142;48.888;9.134;2023-04-01T13:37:26;96815.94;;;11.03
6550;BMP280;15142;48.888;9.134;2023-04-01T13:40:18;96818.50;;;11.03
6550;BMP280;15142;48.888;9.134;2023-04-01T13:42:53;96825.41;;;10.94
6550;BMP280;15142;48.888;9.134;2023-04-01T13:45:24;96817.91;;;10.97
6550;BMP280;15142;48.888;9.134;2023-04-01T13:48:16;96835.13;;;11.00
6550;BMP280;15142;48.888;9.134;2023-04-01T13:51:00;96835.13;;;11.00
6550;BMP280;15142;48.888;9.134;2023-04-01T13:53:57;96829.75;;;10.93
6550;BMP280;15142;48.888;9.134;2023-04-01T13:56:34;96833.53;;;10.79
6550;BMP280;15142;48.888;9.134;2023-04-01T13:59:10;96837.56;;;10.72
6550;BMP280;15142;48.888;9.134;2023-04-01T14:01:51;96849.31;;;10.73
6550;BMP280;15142;48.888;9.134;2023-04-01T14:04:41;96836.53;;;10.81
6550;BMP280;15142;48.888;9.134;2023-04-01T14:07:31;96838.47;;;10.92
6550;BMP280;15142;48.888;9.134;2023-04-01T14:10:20;96844.91;;;10.98
6550;BMP280;15142;48.888;9.134;2023-04-01T14:12:58;96849.25;;;11.06
6550;BMP280;15142;48.888;9.134;2023-04-01T14:15:42;96855.88;;;11.07
6550;BMP280;15142;48.888;9.134;2023-04-01T14:18:49;96849.50;;;11.30
6550;BMP280;15142;48.888;9.134;2023-04-01T14:21:28;96850.91;;;11.19
6550;BMP280;15142;48.888;9.134;2023-04-01T14:24:18;96853.78;;;11.09
6550;BMP280;15142;48.888;9.134;2023-04-01T14:27:11;96857.38;;;10.91
6550;BMP280;15142;48.888;9.134;2023-04-01T14:29:52;96839.38;;;10.79
6550;BMP280;15142;48.888;9.134;2023-04-01T14:32:32;96844.94;;;10.65
6550;BMP280;15142;48.888;9.134;2023-04-01T14:35:21;96843.88;;;10.49
6550;BMP280;15142;48.888;9.134;2023-04-01T14:38:04;96852.28;;;10.41
6550;BMP280;15142;48.888;9.134;2023-04-01T14:40:48;96843.13;;;10.48
6550;BMP280;15142;48.888;9.134;2023-04-01T14:43:52;96843.13;;;10.48
6550;BMP280;15142;48.888;9.134;2023-04-01T14:46:34;96850.19;;;10.43
6550;BMP280;15142;48.888;9.134;2023-04-01T14:49:16;96853.91;;;10.46
6550;BMP280;15142;48.888;9.134;2023-04-01T14:51:48;96853.16;;;10.45
6550;BMP280;15142;48.888;9.134;2023-04-01T14:54:21;96857.38;;;10.49
6550;BMP280;15142;48.888;9.134;2023-04-01T14:57:05;96861.75;;;10.57
6550;BMP280;15142;48.888;9.134;2023-04-01T14:59:39;96872.22;;;10.64
6550;BMP280;15142;48.888;9.134;2023-04-01T15:02:18;96860.38;;;10.68
6550;BMP280;15142;48.888;9.134;2023-04-01T15:04:57;96867.72;;;10.78
6550;BMP280;15142;48.888;9.134;2023-04-01T15:14:16;96867.16;;;10.98
6550;BMP280;15142;48.888;9.134;2023-04-01T15:16:55;96868.97;;;10.97
6550;BMP280;15142;48.888;9.134;2023-04-01T15:19:38;96865.03;;;11.00
6550;BMP280;15142;48.888;9.134;2023-04-01T15:22:25;96865.66;;;10.97
6550;BMP280;15142;48.888;9.134;2023-04-01T15:25:09;96865.66;;;10.97
6550;BMP280;15142;48.888;9.134;2023-04-01T15:27:41;96870.41;;;10.98
6550;BMP280;15142;48.888;9.134;2023-04-01T15:30:21;96880.66;;;11.07
6550;BMP280;15142;48.888;9.134;2023-04-01T15:33:25;96879.31;;;11.09
6550;BMP280;15142;48.888;9.134;2023-04-01T15:36:02;96889.06;;;11.07
6550;BMP280;15142;48.888;9.134;2023-04-01T15:38:36;96880.34;;;11.08
6550;BMP280;15142;48.888;9.134;2023-04-01T15:41:14;96890.88;;;11.07
6550;BMP280;15142;48.888;9.134;2023-04-01T15:43:44;96896.41;;;11.00
6550;BMP280;15142;48.888;9.134;2023-04-01T15:46:29;96891.75;;;11.02
6550;BMP280;15142;48.888;9.134;2023-04-01T15:49:11;96890.41;;;10.96
6550;BMP280;15142;48.888;9.134;2023-04-01T15:52:03;96889.53;;;11.01
6550;BMP280;15142;48.888;9.134;2023-04-01T15:57:54;96895.66;;;10.91
6550;BMP280;15142;48.888;9.134;2023-04-01T16:00:28;96899.41;;;10.94
6550;BMP280;15142;48.888;9.134;2023-04-01T16:03:15;96905.44;;;10.89
6550;BMP280;15142;48.888;9.134;2023-04-01T16:06:07;96915.19;;;10.87
6550;BMP280;15142;48.888;9.134;2023-04-01T16:08:52;96914.44;;;10.87
6550;BMP280;15142;48.888;9.134;2023-04-01T16:11:28;96907.81;;;10.86
6550;BMP280;15142;48.888;9.134;2023-04-01T16:14:17;96911.16;;;10.86
6550;BMP280;15142;48.888;9.134;2023-04-01T16:16:59;96913.69;;;10.86
6550;BMP280;15142;48.888;9.134;2023-04-01T16:19:41;96902.88;;;10.81
6550;BMP280;15142;48.888;9.134;2023-04-01T16:22:22;96913.84;;;10.81
6550;BMP280;15142;48.888;9.134;2023-04-01T16:24:55;96906.19;;;10.81
6550;BMP280;15142;48.888;9.134;2023-04-01T16:27:33;96917.44;;;10.80
6550;BMP280;15142;48.888;9.134;2023-04-01T16:30:26;96918.94;;;10.81
6550;BMP280;15142;48.888;9.134;2023-04-01T16:33:01;96928.84;;;10.83
6550;BMP280;15142;48.888;9.134;2023-04-01T16:35:41;96931.09;;;10.84
6550;BMP280;15142;48.888;9.134;2023-04-01T16:38:18;96921.94;;;10.83
6550;BMP280;15142;48.888;9.134;2023-04-01T16:40:59;96925.56;;;10.82
6550;BMP280;15142;48.888;9.134;2023-04-01T16:43:35;96921.78;;;10.80
6550;BMP280;15142;48.888;9.134;2023-04-01T16:46:34;96921.63;;;10.77